Time;durP1;ratioP1;P1;durP2;ratioP2;P2;SDS_P1;SDS_P2;PMS_P1;PMS_P2;Temp;Humidity;BMP_temperature;BMP_pressure;BME280_temperature;BME280_humidity;BME280_pressure;Samples;Min_cycle;Max_cycle;Signal;HPM_P1;HPM_P2
2023/09/25 00:00:07;;;;;;;3.90;2.13;;;;;;;;;;5086025;28;20023;-49
2023/09/25 00:02:35;;;;;;;2.40;2.10;;;;;;;;;;5086422;28;20288;-47
2023/09/25 00:05:01;;;;;;;2.83;2.40;;;;;;;;;;5084205;28;20028;-46
2023/09/25 00:07:28;;;;;;;4.00;2.40;;;;;;;;;;5085074;28;20036;-50
2023/09/25 00:09:55;;;;;;;2.55;2.22;;;;;;;;;;5084320;28;20037;-50
2023/09/25 00:12:23;;;;;;;3.22;2.17;;;;;;;;;;5085264;28;20228;-44
2023/09/25 00:14:50;;;;;;;6.03;3.20;;;;;;;;;;5084045;28;20026;-52
2023/09/25 00:17:17;;;;;;;4.85;4.10;;;;;;;;;;5083913;28;20095;-45
2023/09/25 00:19:43;;;;;;;10.52;9.52;;;;;;;;;;5082400;28;20028;-45
2023/09/25 00:22:10;;;;;;;7.72;7.03;;;;;;;;;;5081985;28;20054;-48
2023/09/25 00:24:37;;;;;;;4.70;4.20;;;;;;;;;;5082798;28;20355;-44
2023/09/25 00:27:03;;;;;;;4.43;3.45;;;;;;;;;;5083224;28;20082;-51
2023/09/25 00:29:30;;;;;;;3.75;2.72;;;;;;;;;;5083615;28;20039;-46
2023/09/25 00:31:57;;;;;;;4.03;2.90;;;;;;;;;;5082972;28;20024;-52
2023/09/25 00:34:25;;;;;;;4.30;2.63;;;;;;;;;;5084115;28;20044;-49
2023/09/25 00:36:51;;;;;;;4.57;2.42;;;;;;;;;;5084887;28;20032;-45
2023/09/25 00:39:24;;;;;;;3.30;2.00;;;;;;;;;;5084759;28;20033;-47
2023/09/25 00:41:51;;;;;;;4.75;2.10;;;;;;;;;;5085170;28;20047;-49
2023/09/25 00:44:17;;;;;;;5.13;1.83;;;;;;;;;;5104909;28;20251;-47
2023/09/25 00:46:44;;;;;;;3.45;2.00;;;;;;;;;;5091323;28;20400;-48
2023/09/25 00:49:11;;;;;;;6.68;1.90;;;;;;;;;;5084504;28;20041;-49
2023/09/25 00:51:38;;;;;;;3.92;2.10;;;;;;;;;;5081100;28;20391;-52
2023/09/25 00:54:05;;;;;;;6.78;2.10;;;;;;;;;;5084043;28;20036;-49
2023/09/25 00:56:32;;;;;;;4.43;2.30;;;;;;;;;;5082907;28;20040;-50
2023/09/25 00:58:59;;;;;;;3.92;2.50;;;;;;;;;;5084614;28;20091;-52
2023/09/25 01:01:28;;;;;;;4.43;2.55;;;;;;;;;;5080887;28;20017;-50
2023/09/25 01:03:54;;;;;;;2.95;2.13;;;;;;;;;;5083119;28;20094;-51
2023/09/25 01:06:22;;;;;;;3.55;2.00;;;;;;;;;;5077249;28;20021;-55
2023/09/25 01:08:50;;;;;;;3.35;2.75;;;;;;;;;;5064383;28;20111;-50
2023/09/25 01:11:16;;;;;;;5.72;2.60;;;;;;;;;;5064510;28;20280;-49
2023/09/25 01:13:43;;;;;;;4.00;2.67;;;;;;;;;;5083849;28;20032;-48
2023/09/25 01:16:10;;;;;;;3.25;2.70;;;;;;;;;;5083406;28;20028;-48
2023/09/25 01:18:36;;;;;;;5.68;2.65;;;;;;;;;;5103026;28;20340;-54
2023/09/25 01:21:03;;;;;;;3.80;2.70;;;;;;;;;;5104305;28;20370;-50
2023/09/25 01:23:30;;;;;;;4.03;2.30;;;;;;;;;;5064545;28;20036;-49
2023/09/25 01:25:57;;;;;;;4.55;2.05;;;;;;;;;;5063922;28;20041;-51
2023/09/25 01:28:24;;;;;;;5.38;1.67;;;;;;;;;;5080157;28;20050;-50
2023/09/25 01:30:50;;;;;;;4.57;1.75;;;;;;;;;;5082215;28;20035;-50
2023/09/25 01:33:17;;;;;;;5.00;1.85;;;;;;;;;;5082941;28;20036;-50
2023/09/25 01:35:44;;;;;;;4.00;1.70;;;;;;;;;;5083841;28;20028;-50
2023/09/25 01:38:10;;;;;;;4.22;1.70;;;;;;;;;;5081276;28;20032;-53
2023/09/25 01:40:37;;;;;;;2.47;1.30;;;;;;;;;;5075224;28;20036;-49
2023/09/25 01:43:04;;;;;;;5.10;1.90;;;;;;;;;;5077959;28;20324;-54
2023/09/25 01:45:30;;;;;;;3.10;1.85;;;;;;;;;;5083564;28;20028;-50
2023/09/25 01:47:57;;;;;;;3.25;1.73;;;;;;;;;;5070512;28;20202;-51
2023/09/25 01:50:25;;;;;;;3.95;1.70;;;;;;;;;;5078472;28;20301;-56
2023/09/25 01:52:53;;;;;;;4.25;1.85;;;;;;;;;;5076401;28;20045;-50
2023/09/25 01:55:20;;;;;;;3.42;1.60;;;;;;;;;;5069577;28;20036;-49
2023/09/25 01:57:46;;;;;;;3.83;1.63;;;;;;;;;;5070313;28;20029;-50
2023/09/25 02:00:13;;;;;;;6.30;3.55;;;;;;;;;;5071507;28;20108;-51
2023/09/25 02:02:41;;;;;;;6.07;3.38;;;;;;;;;;5068785;28;20255;-52
2023/09/25 02:05:08;;;;;;;3.72;2.50;;;;;;;;;;5068741;28;20074;-52
2023/09/25 02:07:36;;;;;;;4.13;2.30;;;;;;;;;;5063387;28;20201;-47
2023/09/25 02:10:03;;;;;;;2.92;1.92;;;;;;;;;;5064800;28;20048;-48
2023/09/25 02:12:29;;;;;;;5.28;2.20;;;;;;;;;;5071824;28;20029;-47
2023/09/25 02:15:01;;;;;;;2.00;1.65;;;;;;;;;;5065137;28;20017;-49
2023/09/25 02:17:29;;;;;;;;;;;;;;;;;;5078554;28;20040;-49
2023/09/25 02:20:12;;;;;;;4.50;1.35;;;;;;;;;;5078673;28;19913;-48
2023/09/25 02:22:39;;;;;;;4.45;1.50;;;;;;;;;;5072760;28;20033;-50
2023/09/25 02:25:06;;;;;;;2.72;1.30;;;;;;;;;;5072569;28;20264;-57
2023/09/25 02:27:33;;;;;;;3.00;1.35;;;;;;;;;;5072283;28;20083;-48
2023/09/25 02:30:00;;;;;;;4.10;1.20;;;;;;;;;;5072910;28;20016;-48
2023/09/25 02:32:27;;;;;;;5.43;1.45;;;;;;;;;;5071606;28;20025;-50
2023/09/25 02:34:54;;;;;;;3.63;1.17;;;;;;;;;;5072777;28;20312;-49
2023/09/25 02:37:22;;;;;;;3.55;1.33;;;;;;;;;;5074158;28;20035;-50
2023/09/25 02:39:49;;;;;;;3.63;2.40;;;;;;;;;;5072063;28;20024;-48
2023/09/25 02:42:16;;;;;;;6.13;3.47;;;;;;;;;;5074713;28;20146;-56
2023/09/25 02:44:44;;;;;;;5.30;2.85;;;;;;;;;;5080865;28;20020;-56
2023/09/25 02:47:13;;;;;;;3.05;2.40;;;;;;;;;;5070390;28;20032;-50
2023/09/25 02:49:40;;;;;;;3.55;2.08;;;;;;;;;;5083564;28;20063;-49
2023/09/25 02:52:07;;;;;;;4.30;1.98;;;;;;;;;;5063566;28;20025;-54
2023/09/25 02:54:37;;;;;;;4.63;2.20;;;;;;;;;;5064395;28;20028;-51
2023/09/25 03:00:11;;;;;;;5.18;1.48;;;;;;;;;;5077493;28;20077;-49
2023/09/25 03:02:38;;;;;;;6.00;1.30;;;;;;;;;;5074763;28;20036;-49
2023/09/25 03:05:05;;;;;;;5.43;1.30;;;;;;;;;;5079968;28;20025;-51
2023/09/25 03:07:32;;;;;;;5.65;1.27;;;;;;;;;;5067658;28;20244;-49
2023/09/25 03:09:59;;;;;;;3.05;1.20;;;;;;;;;;5066552;28;20261;-52
2023/09/25 03:12:25;;;;;;;4.70;0.98;;;;;;;;;;5066822;28;20032;-52
2023/09/25 03:14:52;;;;;;;3.33;1.20;;;;;;;;;;5066065;28;20021;-53
2023/09/25 03:17:19;;;;;;;2.30;1.05;;;;;;;;;;5066537;28;20028;-48
2023/09/25 03:19:46;;;;;;;3.92;1.27;;;;;;;;;;5066438;28;20032;-55
2023/09/25 03:22:13;;;;;;;6.60;1.23;;;;;;;;;;5066438;28;20088;-50
2023/09/25 03:24:40;;;;;;;2.25;1.10;;;;;;;;;;5066343;28;20029;-51
2023/09/25 03:27:07;;;;;;;2.53;0.90;;;;;;;;;;5068396;28;20037;-54
2023/09/25 03:29:33;;;;;;;3.53;0.98;;;;;;;;;;5074581;28;20028;-51
2023/09/25 03:32:00;;;;;;;4.63;1.23;;;;;;;;;;5066240;28;20104;-50
2023/09/25 03:34:27;;;;;;;2.42;0.93;;;;;;;;;;5066172;28;20092;-49
2023/09/25 03:36:53;;;;;;;2.83;0.75;;;;;;;;;;5066129;28;20028;-50
2023/09/25 03:39:20;;;;;;;3.75;1.00;;;;;;;;;;5066060;28;20197;-51
2023/09/25 03:41:48;;;;;;;1.67;0.82;;;;;;;;;;5066316;28;20021;-50
2023/09/25 03:44:14;;;;;;;6.20;1.50;;;;;;;;;;5066061;28;20067;-50
2023/09/25 03:46:41;;;;;;;4.65;1.85;;;;;;;;;;5065959;28;20106;-49
2023/09/25 03:49:07;;;;;;;5.10;2.67;;;;;;;;;;5066187;28;20205;-49
2023/09/25 03:51:34;;;;;;;6.85;3.20;;;;;;;;;;5065873;28;20077;-51
2023/09/25 03:54:01;;;;;;;7.80;3.38;;;;;;;;;;5065488;28;20063;-50
2023/09/25 03:56:29;;;;;;;7.82;2.92;;;;;;;;;;5065628;28;20097;-52
2023/09/25 03:58:56;;;;;;;4.32;2.75;;;;;;;;;;5065755;28;20044;-52
2023/09/25 04:01:22;;;;;;;7.10;3.13;;;;;;;;;;5065519;28;20028;-50
2023/09/25 04:03:49;;;;;;;7.03;2.10;;;;;;;;;;5065681;28;20025;-53
2023/09/25 04:06:18;;;;;;;6.22;1.83;;;;;;;;;;5068163;28;20024;-49
2023/09/25 04:08:44;;;;;;;3.28;1.35;;;;;;;;;;5072038;28;20056;-49
2023/09/25 04:11:11;;;;;;;5.13;1.70;;;;;;;;;;5065361;28;20079;-52
2023/09/25 04:13:39;;;;;;;7.15;1.60;;;;;;;;;;5065571;28;20249;-51
2023/09/25 04:16:06;;;;;;;5.07;1.48;;;;;;;;;;5075263;28;20040;-49
2023/09/25 04:18:33;;;;;;;3.88;1.48;;;;;;;;;;5085240;28;20090;-50
2023/09/25 04:21:02;;;;;;;3.38;1.38;;;;;;;;;;5085370;28;20024;-51
2023/09/25 04:23:29;;;;;;;6.80;1.63;;;;;;;;;;5085598;28;20312;-54
2023/09/25 04:26:00;;;;;;;5.63;1.40;;;;;;;;;;5085260;28;20035;-48
2023/09/25 04:28:30;;;;;;;6.00;1.52;;;;;;;;;;5085593;28;20085;-55
2023/09/25 04:30:57;;;;;;;2.17;1.40;;;;;;;;;;5085050;28;20043;-47
2023/09/25 04:33:24;;;;;;;7.38;1.55;;;;;;;;;;5085466;28;20025;-49
2023/09/25 04:35:52;;;;;;;3.80;1.50;;;;;;;;;;5085033;28;20028;-49
2023/09/25 04:38:19;;;;;;;3.55;1.42;;;;;;;;;;5085268;28;20308;-52
2023/09/25 04:40:46;;;;;;;6.25;1.20;;;;;;;;;;5084820;28;20027;-46
2023/09/25 04:43:17;;;;;;;6.15;1.40;;;;;;;;;;5085182;28;20024;-48
2023/09/25 04:45:44;;;;;;;2.67;0.82;;;;;;;;;;5084712;28;20028;-49
2023/09/25 04:48:10;;;;;;;2.30;0.80;;;;;;;;;;5085169;28;20021;-49
2023/09/25 04:50:37;;;;;;;3.78;1.00;;;;;;;;;;5084587;28;20028;-54
2023/09/25 04:53:10;;;;;;;4.00;1.13;;;;;;;;;;5084998;28;20055;-55
2023/09/25 04:55:39;;;;;;;6.95;1.20;;;;;;;;;;5084546;28;20245;-50
2023/09/25 04:58:06;;;;;;;2.75;0.90;;;;;;;;;;5084287;28;20134;-54
2023/09/25 05:00:33;;;;;;;2.97;0.90;;;;;;;;;;5081076;28;20023;-49
2023/09/25 05:03:00;;;;;;;4.68;0.95;;;;;;;;;;5075803;28;20313;-54
2023/09/25 05:05:28;;;;;;;6.28;1.75;;;;;;;;;;5069394;28;20029;-56
2023/09/25 05:07:55;;;;;;;5.75;2.10;;;;;;;;;;5064630;28;20031;-51
2023/09/25 05:10:23;;;;;;;5.20;2.13;;;;;;;;;;5064130;28;20111;-49
2023/09/25 05:12:50;;;;;;;4.57;1.98;;;;;;;;;;5064469;28;20036;-50
2023/09/25 05:15:17;;;;;;;4.25;2.30;;;;;;;;;;5064209;28;20088;-54
2023/09/25 05:17:44;;;;;;;5.90;2.20;;;;;;;;;;5063842;28;20021;-49
2023/09/25 05:20:13;;;;;;;9.98;1.83;;;;;;;;;;5064060;28;20247;-54
2023/09/25 05:22:40;;;;;;;5.15;2.10;;;;;;;;;;5064331;28;20074;-49
2023/09/25 05:25:10;;;;;;;5.22;2.20;;;;;;;;;;5064246;28;20086;-48
2023/09/25 05:27:37;;;;;;;4.65;1.63;;;;;;;;;;5064291;28;20185;-48
2023/09/25 05:30:10;;;;;;;8.50;1.80;;;;;;;;;;5064088;28;20370;-49
2023/09/25 05:32:38;;;;;;;4.47;1.50;;;;;;;;;;5064309;28;20037;-51
2023/09/25 05:35:05;;;;;;;7.70;2.35;;;;;;;;;;5064164;28;20037;-52
2023/09/25 05:37:33;;;;;;;6.60;2.38;;;;;;;;;;5064192;28;20028;-52
2023/09/25 05:40:00;;;;;;;4.00;1.90;;;;;;;;;;5063844;28;20047;-54
2023/09/25 05:42:26;;;;;;;5.38;1.52;;;;;;;;;;5064258;28;20301;-51
2023/09/25 05:44:53;;;;;;;3.95;1.60;;;;;;;;;;5063776;28;20213;-48
2023/09/25 05:47:20;;;;;;;4.32;1.20;;;;;;;;;;5063970;28;20036;-49
2023/09/25 05:49:46;;;;;;;6.07;1.10;;;;;;;;;;5063661;28;20040;-53
2023/09/25 05:52:13;;;;;;;5.22;1.10;;;;;;;;;;5064023;28;20306;-52
2023/09/25 05:54:40;;;;;;;3.08;1.00;;;;;;;;;;5063659;28;20060;-49
2023/09/25 05:57:08;;;;;;;5.07;1.05;;;;;;;;;;5063734;28;20317;-50
2023/09/25 05:59:35;;;;;;;5.22;1.08;;;;;;;;;;5063672;28;20221;-48
2023/09/25 06:02:02;;;;;;;5.07;1.02;;;;;;;;;;5063893;28;20043;-54
2023/09/25 06:04:29;;;;;;;1.95;0.80;;;;;;;;;;5063539;28;20029;-48
2023/09/25 06:06:55;;;;;;;2.53;0.82;;;;;;;;;;5063800;28;20070;-49
2023/09/25 06:09:23;;;;;;;3.15;1.00;;;;;;;;;;5063392;28;20276;-50
2023/09/25 06:11:49;;;;;;;2.95;0.75;;;;;;;;;;5063575;28;20044;-47
2023/09/25 06:14:16;;;;;;;5.35;0.90;;;;;;;;;;5063516;28;20017;-47
2023/09/25 06:16:43;;;;;;;4.38;0.85;;;;;;;;;;5063563;28;20053;-51
2023/09/25 06:19:10;;;;;;;4.15;0.90;;;;;;;;;;5063376;28;20272;-48
2023/09/25 06:21:36;;;;;;;4.07;0.90;;;;;;;;;;5063122;28;20017;-50
2023/09/25 06:24:06;;;;;;;2.90;0.90;;;;;;;;;;5063553;28;20088;-48
2023/09/25 06:26:33;;;;;;;4.88;0.90;;;;;;;;;;5063238;28;20033;-49
2023/09/25 06:28:59;;;;;;;5.30;0.88;;;;;;;;;;5063354;28;20025;-48
2023/09/25 06:31:26;;;;;;;5.38;1.00;;;;;;;;;;5067095;28;20029;-50
2023/09/25 06:33:53;;;;;;;4.20;0.90;;;;;;;;;;5067179;28;20040;-48
2023/09/25 06:36:19;;;;;;;5.57;1.13;;;;;;;;;;5067131;28;20025;-52
2023/09/25 06:38:46;;;;;;;3.78;1.00;;;;;;;;;;5067206;28;20021;-53
2023/09/25 06:41:13;;;;;;;11.85;1.02;;;;;;;;;;5066955;28;20082;-56
2023/09/25 06:43:40;;;;;;;6.07;1.00;;;;;;;;;;5067229;28;20076;-48
2023/09/25 06:46:06;;;;;;;5.13;1.13;;;;;;;;;;5067103;28;20029;-50
2023/09/25 06:48:33;;;;;;;6.25;1.00;;;;;;;;;;5066768;28;20037;-47
2023/09/25 06:51:00;;;;;;;5.75;1.27;;;;;;;;;;5066874;28;20021;-47
2023/09/25 06:53:27;;;;;;;3.05;1.40;;;;;;;;;;5067224;28;20194;-49
2023/09/25 06:55:55;;;;;;;4.38;1.10;;;;;;;;;;5066912;28;20037;-49
2023/09/25 06:58:21;;;;;;;4.05;0.82;;;;;;;;;;5067218;28;20028;-47
2023/09/25 07:00:48;;;;;;;3.88;0.90;;;;;;;;;;5066863;28;20032;-48
2023/09/25 07:03:15;;;;;;;5.85;1.10;;;;;;;;;;5067052;28;20040;-50
2023/09/25 07:05:42;;;;;;;3.42;1.25;;;;;;;;;;5066636;28;20021;-49
2023/09/25 07:08:09;;;;;;;3.88;0.95;;;;;;;;;;5067013;28;20067;-47
2023/09/25 07:10:37;;;;;;;2.28;0.90;;;;;;;;;;5066230;28;20061;-49
2023/09/25 07:13:04;;;;;;;3.08;1.20;;;;;;;;;;5067015;28;20032;-50
2023/09/25 07:15:31;;;;;;;3.40;1.00;;;;;;;;;;5066408;28;20033;-50
2023/09/25 07:17:59;;;;;;;4.53;1.02;;;;;;;;;;5068775;28;20095;-49
2023/09/25 07:20:25;;;;;;;4.15;1.05;;;;;;;;;;5075265;28;20024;-49
2023/09/25 07:22:52;;;;;;;7.25;1.30;;;;;;;;;;5066468;28;20096;-49
2023/09/25 07:25:19;;;;;;;3.55;1.20;;;;;;;;;;5066209;28;20029;-50
2023/09/25 07:27:47;;;;;;;0.85;0.77;;;;;;;;;;5066222;28;20033;-49
2023/09/25 07:30:14;;;;;;;6.13;1.33;;;;;;;;;;5066479;28;20308;-49
2023/09/25 07:32:42;;;;;;;5.10;1.25;;;;;;;;;;5066349;28;20087;-45
2023/09/25 07:35:15;;;;;;;5.28;0.93;;;;;;;;;;5066178;28;20025;-49
2023/09/25 07:37:47;;;;;;;2.45;0.80;;;;;;;;;;5066434;28;20104;-50
2023/09/25 07:40:14;;;;;;;4.70;0.90;;;;;;;;;;5065741;28;20063;-49
2023/09/25 07:42:42;;;;;;;3.85;1.10;;;;;;;;;;5066289;28;20021;-50
2023/09/25 07:45:12;;;;;;;3.20;1.42;;;;;;;;;;5065953;28;20017;-49
2023/09/25 07:47:42;;;;;;;2.28;1.00;;;;;;;;;;5066188;28;20294;-49
2023/09/25 07:50:10;;;;;;;6.03;1.25;;;;;;;;;;5065928;28;20032;-49
2023/09/25 07:52:38;;;;;;;5.13;1.40;;;;;;;;;;5066096;28;20037;-52
2023/09/25 07:55:11;;;;;;;4.05;1.02;;;;;;;;;;5065734;28;20102;-50
2023/09/25 07:57:43;;;;;;;3.08;1.27;;;;;;;;;;5066084;28;20033;-48
2023/09/25 08:00:37;;;;;;;5.85;1.55;;;;;;;;;;5065531;28;20025;-48
2023/09/25 08:02:57;;;;;;;3.58;1.50;;;;;;;;;;5065664;28;20060;-50
2023/09/25 08:05:24;;;;;;;4.60;1.20;;;;;;;;;;5065422;28;20390;-49
2023/09/25 08:07:51;;;;;;;4.18;1.23;;;;;;;;;;5065940;28;20305;-48
2023/09/25 08:10:18;;;;;;;5.95;1.27;;;;;;;;;;5065303;28;20045;-50
2023/09/25 08:12:45;;;;;;;2.45;1.00;;;;;;;;;;5065243;28;20052;-49
2023/09/25 08:15:12;;;;;;;4.53;1.10;;;;;;;;;;5065364;28;20084;-57
2023/09/25 08:17:42;;;;;;;6.20;1.30;;;;;;;;;;5073906;28;20258;-56
2023/09/25 08:20:14;;;;;;;4.97;1.10;;;;;;;;;;5080210;28;20043;-50
2023/09/25 08:22:43;;;;;;;4.70;1.08;;;;;;;;;;5065505;28;20025;-50
2023/09/25 08:25:10;;;;;;;2.95;0.93;;;;;;;;;;5065211;28;20094;-50
2023/09/25 08:27:40;;;;;;;3.00;0.98;;;;;;;;;;5065270;28;20036;-50
2023/09/25 08:30:08;;;;;;;2.35;1.27;;;;;;;;;;5068289;28;20032;-50
2023/09/25 08:32:34;;;;;;;5.10;1.20;;;;;;;;;;5065302;28;20052;-49
2023/09/25 08:35:02;;;;;;;2.90;1.00;;;;;;;;;;5064807;28;20036;-49
2023/09/25 08:37:28;;;;;;;4.95;1.00;;;;;;;;;;5065086;28;20052;-50
2023/09/25 08:39:56;;;;;;;2.45;0.80;;;;;;;;;;5065072;28;20037;-48
2023/09/25 08:42:23;;;;;;;4.18;1.10;;;;;;;;;;5064832;28;20025;-53
2023/09/25 08:44:53;;;;;;;3.72;1.30;;;;;;;;;;5064742;28;20066;-48
2023/09/25 08:47:21;;;;;;;3.70;1.00;;;;;;;;;;5064940;28;20036;-49
2023/09/25 08:49:51;;;;;;;5.15;1.20;;;;;;;;;;5064654;28;20236;-56
2023/09/25 08:52:18;;;;;;;2.78;0.98;;;;;;;;;;5075666;28;20285;-49
2023/09/25 08:54:45;;;;;;;5.82;1.00;;;;;;;;;;5084909;28;20188;-49
2023/09/25 08:57:12;;;;;;;9.10;1.00;;;;;;;;;;5084756;28;20363;-49
2023/09/25 08:59:39;;;;;;;3.47;1.20;;;;;;;;;;5084488;28;20226;-50
2023/09/25 09:02:08;;;;;;;3.80;0.90;;;;;;;;;;5084567;28;20375;-44
2023/09/25 09:04:36;;;;;;;2.10;0.90;;;;;;;;;;5084401;28;20070;-50
2023/09/25 09:07:04;;;;;;;4.85;1.10;;;;;;;;;;5084539;28;20032;-48
2023/09/25 09:09:31;;;;;;;4.65;2.55;;;;;;;;;;5084050;28;20058;-47
2023/09/25 09:11:58;;;;;;;8.95;6.15;;;;;;;;;;5084373;28;20029;-50
2023/09/25 09:14:35;;;;;;;9.13;8.23;;;;;;;;;;5084337;28;20024;-57
2023/09/25 09:17:05;;;;;;;10.27;7.35;;;;;;;;;;5084177;28;20212;-49
2023/09/25 09:19:37;;;;;;;6.32;5.15;;;;;;;;;;5084097;28;20024;-53
2023/09/25 09:22:07;;;;;;;6.75;4.15;;;;;;;;;;5084327;28;20100;-48
2023/09/25 09:24:35;;;;;;;7.70;3.67;;;;;;;;;;5084080;28;20188;-51
2023/09/25 09:27:07;;;;;;;5.80;2.78;;;;;;;;;;5084211;28;20208;-51
2023/09/25 09:29:37;;;;;;;4.93;2.67;;;;;;;;;;5083882;28;20024;-49
2023/09/25 09:32:05;;;;;;;5.40;2.17;;;;;;;;;;5084321;28;20063;-49
2023/09/25 09:34:32;;;;;;;2.50;2.00;;;;;;;;;;5083958;28;20232;-50
2023/09/25 09:36:59;;;;;;;4.13;1.77;;;;;;;;;;5083896;28;20114;-50
2023/09/25 09:39:25;;;;;;;3.65;1.55;;;;;;;;;;5083953;28;20032;-49
2023/09/25 09:41:55;;;;;;;4.50;1.52;;;;;;;;;;5084129;28;20096;-49
2023/09/25 09:44:22;;;;;;;4.10;1.73;;;;;;;;;;5083724;28;20024;-49
2023/09/25 09:46:52;;;;;;;5.63;1.33;;;;;;;;;;5083938;28;20103;-48
2023/09/25 09:49:21;;;;;;;3.15;1.48;;;;;;;;;;5083746;28;20028;-49
2023/09/25 09:51:51;;;;;;;4.40;1.50;;;;;;;;;;5083767;28;20055;-56
2023/09/25 09:54:19;;;;;;;6.85;1.20;;;;;;;;;;5083610;28;20093;-57
2023/09/25 09:56:50;;;;;;;6.45;1.50;;;;;;;;;;5083699;28;20028;-50
2023/09/25 09:59:17;;;;;;;3.92;1.33;;;;;;;;;;5083740;28;20044;-49
2023/09/25 10:01:48;;;;;;;5.05;1.40;;;;;;;;;;5083112;28;20040;-49
2023/09/25 10:04:15;;;;;;;3.25;1.40;;;;;;;;;;5083767;28;20028;-48
2023/09/25 10:07:00;;;;;;;2.83;1.27;;;;;;;;;;5087903;28;20035;-49
2023/09/25 10:09:27;;;;;;;4.30;1.55;;;;;;;;;;5087673;28;20055;-50
2023/09/25 10:11:58;;;;;;;5.38;1.38;;;;;;;;;;5087736;28;20252;-48
2023/09/25 10:14:26;;;;;;;5.55;1.75;;;;;;;;;;5087648;28;20028;-47
2023/09/25 10:16:52;;;;;;;6.05;1.55;;;;;;;;;;5086937;28;20032;-50
2023/09/25 10:19:20;;;;;;;8.55;1.92;;;;;;;;;;5087558;28;20024;-49
2023/09/25 10:22:07;;;;;;;9.32;1.52;;;;;;;;;;5087717;28;20201;-52
2023/09/25 10:24:34;;;;;;;5.15;1.45;;;;;;;;;;5077314;28;20202;-54
2023/09/25 10:27:01;;;;;;;3.92;3.38;;;;;;;;;;5087634;28;20044;-50
2023/09/25 10:29:28;;;;;;;8.27;4.03;;;;;;;;;;5087360;28;20368;-53
2023/09/25 10:31:55;;;;;;;6.32;3.15;;;;;;;;;;5086409;28;20056;-51
2023/09/25 10:34:29;;;;;;;6.80;2.80;;;;;;;;;;5076662;28;20048;-49
2023/09/25 10:37:04;;;;;;;6.95;3.85;;;;;;;;;;5078555;28;20070;-52
2023/09/25 10:39:31;;;;;;;10.15;4.50;;;;;;;;;;5067344;28;20039;-49
2023/09/25 10:42:07;;;;;;;5.45;4.20;;;;;;;;;;5074138;28;20209;-50
2023/09/25 10:44:37;;;;;;;6.63;4.20;;;;;;;;;;5067217;28;20047;-48
2023/09/25 10:47:09;;;;;;;7.20;4.20;;;;;;;;;;5084681;28;20335;-50
2023/09/25 10:49:37;;;;;;;6.05;4.25;;;;;;;;;;5086870;28;20039;-49
2023/09/25 10:52:04;;;;;;;7.63;4.10;;;;;;;;;;5087216;28;20024;-56
2023/09/25 10:54:33;;;;;;;9.15;3.83;;;;;;;;;;5086959;28;20040;-50
2023/09/25 10:57:00;;;;;;;5.15;3.70;;;;;;;;;;5086761;28;20035;-49
2023/09/25 10:59:28;;;;;;;6.68;3.45;;;;;;;;;;5086943;28;20013;-49
2023/09/25 11:01:55;;;;;;;14.93;3.63;;;;;;;;;;5084906;28;20033;-48
2023/09/25 11:04:22;;;;;;;8.48;2.92;;;;;;;;;;5086582;28;20021;-50
2023/09/25 11:06:48;;;;;;;8.10;3.30;;;;;;;;;;5086988;28;20036;-50
2023/09/25 11:09:19;;;;;;;8.10;2.92;;;;;;;;;;5087204;28;20106;-51
2023/09/25 11:11:46;;;;;;;7.72;3.28;;;;;;;;;;5086540;28;20040;-52
2023/09/25 11:14:13;;;;;;;8.48;3.17;;;;;;;;;;5086654;28;20024;-52
2023/09/25 11:16:40;;;;;;;8.43;3.15;;;;;;;;;;5086001;28;20383;-53
2023/09/25 11:19:14;;;;;;;9.30;3.03;;;;;;;;;;5086288;28;20032;-52
2023/09/25 11:21:42;;;;;;;6.95;2.65;;;;;;;;;;5086698;28;20059;-52
2023/09/25 11:24:09;;;;;;;7.30;2.55;;;;;;;;;;5086750;28;20024;-52
2023/09/25 11:26:39;;;;;;;7.88;2.22;;;;;;;;;;5086095;28;20066;-52
2023/09/25 11:29:09;;;;;;;3.90;1.95;;;;;;;;;;5086463;28;20084;-52
2023/09/25 11:31:39;;;;;;;6.68;2.42;;;;;;;;;;5086133;28;20085;-49
2023/09/25 11:34:09;;;;;;;5.90;2.38;;;;;;;;;;5086196;28;20069;-52
2023/09/25 11:36:46;;;;;;;5.07;2.15;;;;;;;;;;5086137;28;20245;-55
2023/09/25 11:39:14;;;;;;;5.15;1.80;;;;;;;;;;5086168;28;20122;-51
2023/09/25 11:41:41;;;;;;;7.82;2.33;;;;;;;;;;5086038;28;20182;-52
2023/09/25 11:44:09;;;;;;;8.48;2.38;;;;;;;;;;5086067;28;20028;-50
2023/09/25 11:46:36;;;;;;;3.70;1.88;;;;;;;;;;5085810;28;20035;-53
2023/09/25 11:49:03;;;;;;;5.70;1.95;;;;;;;;;;5085727;28;20190;-50
2023/09/25 11:51:30;;;;;;;5.70;2.00;;;;;;;;;;5085714;28;20055;-50
2023/09/25 11:53:57;;;;;;;3.30;1.67;;;;;;;;;;5085494;28;20020;-51
2023/09/25 11:56:23;;;;;;;9.90;2.40;;;;;;;;;;5079637;28;20048;-53
2023/09/25 11:58:50;;;;;;;39.25;6.38;;;;;;;;;;5085748;28;20028;-52
2023/09/25 12:01:17;;;;;;;33.10;14.18;;;;;;;;;;5085515;28;20250;-49
2023/09/25 12:03:43;;;;;;;12.40;3.97;;;;;;;;;;5085558;28;20122;-50
2023/09/25 12:06:10;;;;;;;10.60;3.92;;;;;;;;;;5085551;28;20087;-54
2023/09/25 12:08:38;;;;;;;5.90;3.03;;;;;;;;;;5085196;28;20020;-49
2023/09/25 12:11:05;;;;;;;7.47;2.80;;;;;;;;;;5085422;28;20328;-55
2023/09/25 12:13:31;;;;;;;6.50;3.63;;;;;;;;;;5085961;28;20067;-52
2023/09/25 12:15:58;;;;;;;8.32;3.88;;;;;;;;;;5085224;28;20062;-48
2023/09/25 12:18:24;;;;;;;5.82;3.83;;;;;;;;;;5085805;28;20028;-50
2023/09/25 12:20:51;;;;;;;5.57;2.40;;;;;;;;;;5084196;28;20202;-46
2023/09/25 12:23:18;;;;;;;4.13;2.30;;;;;;;;;;5075241;28;20028;-48
2023/09/25 12:25:45;;;;;;;8.38;2.20;;;;;;;;;;5073800;28;20051;-55
2023/09/25 12:28:12;;;;;;;6.82;2.28;;;;;;;;;;5081993;28;20309;-49
2023/09/25 12:30:39;;;;;;;24.50;3.08;;;;;;;;;;5081857;28;20036;-52
2023/09/25 12:33:07;;;;;;;36.33;4.38;;;;;;;;;;5075741;28;20025;-48
2023/09/25 12:35:36;;;;;;;26.67;4.28;;;;;;;;;;5072713;28;20074;-58
2023/09/25 12:38:03;;;;;;;36.03;5.57;;;;;;;;;;5077453;28;20024;-49
2023/09/25 12:40:29;;;;;;;31.83;4.78;;;;;;;;;;5084821;28;20219;-46
2023/09/25 12:42:56;;;;;;;28.17;5.78;;;;;;;;;;5085208;28;20032;-43
2023/09/25 12:45:23;;;;;;;27.25;4.43;;;;;;;;;;5084734;28;20062;-50
2023/09/25 12:47:50;;;;;;;20.73;3.53;;;;;;;;;;5085212;28;20028;-46
2023/09/25 12:50:17;;;;;;;20.67;3.13;;;;;;;;;;5084793;28;20092;-49
2023/09/25 12:52:45;;;;;;;15.80;3.58;;;;;;;;;;5084954;28;20022;-48
2023/09/25 12:55:12;;;;;;;9.57;3.50;;;;;;;;;;5084512;28;20053;-48
2023/09/25 12:57:38;;;;;;;19.05;3.63;;;;;;;;;;5084739;28;20364;-50
2023/09/25 13:00:05;;;;;;;20.67;3.78;;;;;;;;;;5084407;28;20017;-43
2023/09/25 13:02:32;;;;;;;31.67;5.15;;;;;;;;;;5084670;28;20331;-44
2023/09/25 13:04:59;;;;;;;30.35;4.72;;;;;;;;;;5084434;28;20028;-45
2023/09/25 13:07:25;;;;;;;32.30;5.05;;;;;;;;;;5084781;28;20062;-48
2023/09/25 13:09:53;;;;;;;19.38;3.97;;;;;;;;;;5085252;28;20078;-46
2023/09/25 13:12:19;;;;;;;23.85;4.40;;;;;;;;;;5083003;28;20213;-51
2023/09/25 13:14:46;;;;;;;24.30;5.05;;;;;;;;;;5084191;28;20031;-40
2023/09/25 13:17:13;;;;;;;21.80;4.57;;;;;;;;;;5083602;28;20036;-49
2023/09/25 13:19:41;;;;;;;20.05;4.50;;;;;;;;;;5084488;28;20059;-40
2023/09/25 13:22:09;;;;;;;20.60;4.00;;;;;;;;;;5084495;28;20028;-40
2023/09/25 13:24:36;;;;;;;20.23;4.55;;;;;;;;;;5083334;28;20340;-47
2023/09/25 13:27:02;;;;;;;15.63;4.45;;;;;;;;;;5082533;28;20086;-40
2023/09/25 13:29:29;;;;;;;12.88;4.35;;;;;;;;;;5082216;28;20027;-47
2023/09/25 13:31:56;;;;;;;15.82;4.05;;;;;;;;;;5082491;28;20044;-47
2023/09/25 13:34:23;;;;;;;11.25;4.15;;;;;;;;;;5082273;28;20082;-43
2023/09/25 13:36:51;;;;;;;9.82;3.83;;;;;;;;;;5082167;28;20243;-39
2023/09/25 13:39:17;;;;;;;10.48;3.92;;;;;;;;;;5082314;28;20025;-40
2023/09/25 13:41:44;;;;;;;9.02;3.75;;;;;;;;;;5084016;28;20032;-49
2023/09/25 13:44:11;;;;;;;8.35;3.75;;;;;;;;;;5083817;28;20013;-43
2023/09/25 13:46:38;;;;;;;11.13;4.10;;;;;;;;;;5083994;28;20036;-46
2023/09/25 13:49:05;;;;;;;9.57;4.10;;;;;;;;;;5084154;28;20142;-40
2023/09/25 13:51:32;;;;;;;5.75;3.90;;;;;;;;;;5083808;28;20028;-47
2023/09/25 13:53:58;;;;;;;6.22;3.50;;;;;;;;;;5083637;28;20024;-48
2023/09/25 13:56:27;;;;;;;15.35;4.18;;;;;;;;;;5083641;28;20146;-41
2023/09/25 13:58:53;;;;;;;6.72;3.05;;;;;;;;;;5083711;28;20198;-44
2023/09/25 14:01:21;;;;;;;7.63;2.83;;;;;;;;;;5083603;28;20024;-44
2023/09/25 14:03:48;;;;;;;5.55;3.65;;;;;;;;;;5083719;28;20040;-49
2023/09/25 14:06:14;;;;;;;4.47;3.17;;;;;;;;;;5083638;28;20025;-46
2023/09/25 14:08:41;;;;;;;9.68;3.42;;;;;;;;;;5083412;28;20052;-41
2023/09/25 14:11:08;;;;;;;6.88;3.53;;;;;;;;;;5083440;28;20312;-41
2023/09/25 14:13:35;;;;;;;27.73;3.80;;;;;;;;;;5083575;28;20025;-50
2023/09/25 14:16:01;;;;;;;3.95;3.50;;;;;;;;;;5083385;28;20070;-43
2023/09/25 14:18:28;;;;;;;9.35;3.53;;;;;;;;;;5084050;28;20048;-46
2023/09/25 14:20:55;;;;;;;6.22;3.08;;;;;;;;;;5083551;28;20209;-48
2023/09/25 14:23:21;;;;;;;3.92;3.08;;;;;;;;;;5083846;28;20028;-41
2023/09/25 14:25:48;;;;;;;3.33;3.00;;;;;;;;;;5083520;28;20095;-43
2023/09/25 14:28:15;;;;;;;4.13;2.80;;;;;;;;;;5083944;28;20024;-44
2023/09/25 14:30:41;;;;;;;3.38;2.70;;;;;;;;;;5083367;28;20035;-43
2023/09/25 14:33:08;;;;;;;5.80;4.78;;;;;;;;;;5083869;28;20104;-45
2023/09/25 14:35:35;;;;;;;6.10;3.90;;;;;;;;;;5083402;28;20089;-48
2023/09/25 14:38:02;;;;;;;4.40;4.00;;;;;;;;;;5083670;28;20029;-47
2023/09/25 14:40:30;;;;;;;5.82;4.18;;;;;;;;;;5083313;28;20036;-44
2023/09/25 14:42:57;;;;;;;8.32;4.35;;;;;;;;;;5083308;28;20189;-47
2023/09/25 14:45:24;;;;;;;5.18;3.90;;;;;;;;;;5083122;28;20212;-43